sensor_id;sensor_type;location;lat;lon;timestamp;pressure;altitude;pressure_sealevel;temperature;humidity
6532;BME280;3299;42.004;24.868;2023-07-30T00:02:19;97948.25;;;24.52;44.75
6532;BME280;3299;42.004;24.868;2023-07-30T00:04:45;97913.84;;;24.26;44.77
6532;BME280;3299;42.004;24.868;2023-07-30T00:07:11;97920.16;;;24.25;44.91
6532;BME280;3299;42.004;24.868;2023-07-30T00:09:37;97919.75;;;24.28;44.80
6532;BME280;3299;42.004;24.868;2023-07-30T00:12:04;97950.25;;;24.50;44.71
6532;BME280;3299;42.004;24.868;2023-07-30T00:14:30;97955.16;;;24.53;44.37
6532;BME280;3299;42.004;24.868;2023-07-30T00:16:55;97913.00;;;24.00;45.45
6532;BME280;3299;42.004;24.868;2023-07-30T00:19:21;97943.94;;;24.19;45.83
6532;BME280;3299;42.004;24.868;2023-07-30T00:21:46;97920.94;;;24.13;45.29
6532;BME280;3299;42.004;24.868;2023-07-30T00:24:15;97958.41;;;24.42;45.19
6532;BME280;3299;42.004;24.868;2023-07-30T00:26:40;97932.34;;;24.26;45.27
6532;BME280;3299;42.004;24.868;2023-07-30T00:29:05;97947.41;;;24.32;45.32
6532;BME280;3299;42.004;24.868;2023-07-30T00:31:31;97928.88;;;24.19;45.49
6532;BME280;3299;42.004;24.868;2023-07-30T00:33:56;97916.47;;;24.01;45.43
6532;BME280;3299;42.004;24.868;2023-07-30T00:36:22;97913.19;;;23.92;45.59
6532;BME280;3299;42.004;24.868;2023-07-30T00:38:47;97942.41;;;23.77;46.05
6532;BME280;3299;42.004;24.868;2023-07-30T00:41:12;97912.69;;;23.75;45.80
6532;BME280;3299;42.004;24.868;2023-07-30T00:43:38;97933.72;;;23.90;46.09
6532;BME280;3299;42.004;24.868;2023-07-30T00:46:03;97929.06;;;23.92;46.00
6532;BME280;3299;42.004;24.868;2023-07-30T00:48:29;97932.66;;;23.84;46.37
6532;BME280;3299;42.004;24.868;2023-07-30T00:50:55;97929.00;;;23.85;46.41
6532;BME280;3299;42.004;24.868;2023-07-30T00:53:22;97924.94;;;23.77;46.76
6532;BME280;3299;42.004;24.868;2023-07-30T00:55:48;97931.00;;;23.71;46.73
6532;BME280;3299;42.004;24.868;2023-07-30T00:58:13;97900.59;;;23.41;47.40
6532;BME280;3299;42.004;24.868;2023-07-30T01:00:40;97942.53;;;23.50;47.56
6532;BME280;3299;42.004;24.868;2023-07-30T01:03:06;97898.09;;;23.20;47.58
6532;BME280;3299;42.004;24.868;2023-07-30T01:05:32;97905.59;;;23.23;47.39
6532;BME280;3299;42.004;24.868;2023-07-30T01:07:58;97944.28;;;23.37;47.65
6532;BME280;3299;42.004;24.868;2023-07-30T01:10:24;97942.25;;;23.39;48.04
6532;BME280;3299;42.004;24.868;2023-07-30T01:12:50;97920.84;;;23.21;47.96
6532;BME280;3299;42.004;24.868;2023-07-30T01:15:16;97913.22;;;23.05;48.27
6532;BME280;3299;42.004;24.868;2023-07-30T01:17:42;97920.94;;;23.06;48.43
6532;BME280;3299;42.004;24.868;2023-07-30T01:20:08;97918.91;;;23.08;48.27
6532;BME280;3299;42.004;24.868;2023-07-30T01:22:35;97930.53;;;23.14;48.44
6532;BME280;3299;42.004;24.868;2023-07-30T01:25:01;97914.16;;;22.91;48.46
6532;BME280;3299;42.004;24.868;2023-07-30T01:27:29;97943.47;;;23.09;48.57
6532;BME280;3299;42.004;24.868;2023-07-30T01:30:03;97943.72;;;23.14;48.75
6532;BME280;3299;42.004;24.868;2023-07-30T01:32:32;97911.09;;;22.87;48.87
6532;BME280;3299;42.004;24.868;2023-07-30T01:34:58;97940.78;;;22.96;49.20
6532;BME280;3299;42.004;24.868;2023-07-30T01:37:26;97950.59;;;22.74;49.90
6532;BME280;3299;42.004;24.868;2023-07-30T01:39:52;97918.25;;;22.66;49.69
6532;BME280;3299;42.004;24.868;2023-07-30T01:42:18;97931.28;;;22.74;49.65
6532;BME280;3299;42.004;24.868;2023-07-30T01:44:43;97935.03;;;22.58;50.13
6532;BME280;3299;42.004;24.868;2023-07-30T01:47:09;97921.53;;;22.47;50.26
6532;BME280;3299;42.004;24.868;2023-07-30T01:49:34;97933.72;;;22.48;50.45
6532;BME280;3299;42.004;24.868;2023-07-30T01:52:00;97942.94;;;22.58;50.11
6532;BME280;3299;42.004;24.868;2023-07-30T01:54:25;97930.91;;;22.49;50.42
6532;BME280;3299;42.004;24.868;2023-07-30T01:56:51;97934.34;;;22.50;50.49
6532;BME280;3299;42.004;24.868;2023-07-30T01:59:16;97908.16;;;22.27;50.64
6532;BME280;3299;42.004;24.868;2023-07-30T02:01:43;97944.91;;;22.50;50.65
6532;BME280;3299;42.004;24.868;2023-07-30T02:04:08;97919.38;;;22.36;50.43
6532;BME280;3299;42.004;24.868;2023-07-30T02:06:34;97909.84;;;22.35;50.27
6532;BME280;3299;42.004;24.868;2023-07-30T02:08:59;97931.19;;;22.40;50.35
6532;BME280;3299;42.004;24.868;2023-07-30T02:11:24;97955.41;;;22.71;49.94
6532;BME280;3299;42.004;24.868;2023-07-30T02:13:50;97943.91;;;22.78;49.71
6532;BME280;3299;42.004;24.868;2023-07-30T02:16:15;97953.31;;;22.87;49.79
6532;BME280;3299;42.004;24.868;2023-07-30T02:18:40;97956.38;;;22.91;49.87
6532;BME280;3299;42.004;24.868;2023-07-30T02:21:06;97937.41;;;22.81;49.92
6532;BME280;3299;42.004;24.868;2023-07-30T02:23:31;97935.84;;;22.86;49.19
6532;BME280;3299;42.004;24.868;2023-07-30T02:25:57;97957.38;;;22.90;49.15
6532;BME280;3299;42.004;24.868;2023-07-30T02:28:22;97930.00;;;22.63;49.71
6532;BME280;3299;42.004;24.868;2023-07-30T02:30:48;97940.66;;;22.76;49.47
6532;BME280;3299;42.004;24.868;2023-07-30T02:33:13;97952.06;;;22.83;49.46
6532;BME280;3299;42.004;24.868;2023-07-30T02:35:38;97950.84;;;22.86;49.76
6532;BME280;3299;42.004;24.868;2023-07-30T02:38:04;97952.47;;;22.87;49.48
6532;BME280;3299;42.004;24.868;2023-07-30T02:40:29;97952.28;;;22.88;49.65
6532;BME280;3299;42.004;24.868;2023-07-30T02:42:56;97928.31;;;22.56;49.88
6532;BME280;3299;42.004;24.868;2023-07-30T02:45:21;97957.84;;;22.72;50.04
6532;BME280;3299;42.004;24.868;2023-07-30T02:47:46;97948.66;;;22.62;50.06
6532;BME280;3299;42.004;24.868;2023-07-30T02:50:12;97953.69;;;22.57;50.15
6532;BME280;3299;42.004;24.868;2023-07-30T02:52:37;97967.72;;;22.64;50.17
6532;BME280;3299;42.004;24.868;2023-07-30T02:55:03;97957.16;;;22.57;50.39
6532;BME280;3299;42.004;24.868;2023-07-30T02:57:28;97933.84;;;22.40;50.22
6532;BME280;3299;42.004;24.868;2023-07-30T02:59:53;97935.84;;;22.38;50.41
6532;BME280;3299;42.004;24.868;2023-07-30T03:02:19;97937.47;;;22.39;50.54
6532;BME280;3299;42.004;24.868;2023-07-30T03:04:44;97956.94;;;22.38;50.63
6532;BME280;3299;42.004;24.868;2023-07-30T03:07:10;97951.75;;;22.44;50.46
6532;BME280;3299;42.004;24.868;2023-07-30T03:09:35;97944.78;;;22.37;50.51
6532;BME280;3299;42.004;24.868;2023-07-30T03:12:01;97971.53;;;22.55;50.24
6532;BME280;3299;42.004;24.868;2023-07-30T03:14:27;97951.41;;;22.33;50.26
6532;BME280;3299;42.004;24.868;2023-07-30T03:16:52;97976.84;;;22.40;49.85
6532;BME280;3299;42.004;24.868;2023-07-30T03:19:18;97992.38;;;22.50;50.59
6532;BME280;3299;42.004;24.868;2023-07-30T03:21:43;97990.34;;;22.52;50.54
6532;BME280;3299;42.004;24.868;2023-07-30T03:24:08;97987.69;;;22.45;50.75
6532;BME280;3299;42.004;24.868;2023-07-30T03:26:34;97973.31;;;22.33;51.71
6532;BME280;3299;42.004;24.868;2023-07-30T03:28:59;97988.59;;;22.38;51.29
6532;BME280;3299;42.004;24.868;2023-07-30T03:31:25;98003.72;;;22.50;51.41
6532;BME280;3299;42.004;24.868;2023-07-30T03:33:50;97988.59;;;22.38;51.36
6532;BME280;3299;42.004;24.868;2023-07-30T03:36:16;97987.31;;;22.34;51.74
6532;BME280;3299;42.004;24.868;2023-07-30T03:38:42;97983.66;;;22.35;52.20
6532;BME280;3299;42.004;24.868;2023-07-30T03:41:08;97976.41;;;22.37;51.00
6532;BME280;3299;42.004;24.868;2023-07-30T03:43:34;97962.47;;;22.43;51.11
6532;BME280;3299;42.004;24.868;2023-07-30T03:45:59;97982.75;;;22.63;50.97
6532;BME280;3299;42.004;24.868;2023-07-30T03:48:25;97959.31;;;22.54;50.97
6532;BME280;3299;42.004;24.868;2023-07-30T03:50:52;97992.16;;;22.72;51.22
6532;BME280;3299;42.004;24.868;2023-07-30T03:53:17;97979.13;;;22.43;51.82
6532;BME280;3299;42.004;24.868;2023-07-30T03:55:43;97973.25;;;22.48;51.07
6532;BME280;3299;42.004;24.868;2023-07-30T03:58:08;97982.97;;;22.68;50.88
6532;BME280;3299;42.004;24.868;2023-07-30T04:00:34;97989.31;;;22.74;51.28
6532;BME280;3299;42.004;24.868;2023-07-30T04:02:59;97960.81;;;22.63;50.48
6532;BME280;3299;42.004;24.868;2023-07-30T04:05:24;97981.25;;;22.82;50.08
6532;BME280;3299;42.004;24.868;2023-07-30T04:07:50;97980.50;;;22.88;50.03
6532;BME280;3299;42.004;24.868;2023-07-30T04:10:15;97995.25;;;23.03;49.51
6532;BME280;3299;42.004;24.868;2023-07-30T04:12:41;97988.53;;;23.01;49.54
6532;BME280;3299;42.004;24.868;2023-07-30T04:15:06;97984.19;;;22.93;49.62
6532;BME280;3299;42.004;24.868;2023-07-30T04:17:32;97996.88;;;23.04;49.56
6532;BME280;3299;42.004;24.868;2023-07-30T04:19:57;97968.38;;;23.00;49.36
6532;BME280;3299;42.004;24.868;2023-07-30T04:22:23;97997.91;;;23.10;49.44
6532;BME280;3299;42.004;24.868;2023-07-30T04:24:49;98016.91;;;23.26;49.55
6532;BME280;3299;42.004;24.868;2023-07-30T04:27:14;97985.41;;;23.18;49.73
6532;BME280;3299;42.004;24.868;2023-07-30T04:29:39;97986.06;;;23.27;49.55
6532;BME280;3299;42.004;24.868;2023-07-30T04:32:05;98000.81;;;23.49;49.14
6532;BME280;3299;42.004;24.868;2023-07-30T04:34:31;98026.44;;;23.61;49.38
6532;BME280;3299;42.004;24.868;2023-07-30T04:36:56;98017.13;;;23.59;48.96
6532;BME280;3299;42.004;24.868;2023-07-30T04:39:22;98019.19;;;23.69;48.70
6532;BME280;3299;42.004;24.868;2023-07-30T04:41:47;98025.34;;;23.83;48.88
6532;BME280;3299;42.004;24.868;2023-07-30T04:44:12;98009.47;;;23.83;48.24
6532;BME280;3299;42.004;24.868;2023-07-30T04:46:38;98024.66;;;24.02;47.84
6532;BME280;3299;42.004;24.868;2023-07-30T04:49:03;98014.66;;;23.98;47.48
6532;BME280;3299;42.004;24.868;2023-07-30T04:51:29;98029.53;;;24.05;47.80
6532;BME280;3299;42.004;24.868;2023-07-30T04:53:54;98035.78;;;23.91;48.78
6532;BME280;3299;42.004;24.868;2023-07-30T04:56:20;98010.91;;;23.85;49.29
6532;BME280;3299;42.004;24.868;2023-07-30T04:58:45;98031.97;;;24.07;48.52
6532;BME280;3299;42.004;24.868;2023-07-30T05:01:11;98003.25;;;23.91;47.73
6532;BME280;3299;42.004;24.868;2023-07-30T05:03:36;98034.44;;;24.14;47.83
6532;BME280;3299;42.004;24.868;2023-07-30T05:06:01;98018.75;;;24.07;48.23
6532;BME280;3299;42.004;24.868;2023-07-30T05:08:28;98029.19;;;24.21;47.60
6532;BME280;3299;42.004;24.868;2023-07-30T05:10:53;98028.41;;;24.40;47.46
6532;BME280;3299;42.004;24.868;2023-07-30T05:13:18;98041.66;;;24.46;47.16
6532;BME280;3299;42.004;24.868;2023-07-30T05:15:44;98023.50;;;24.43;46.88
6532;BME280;3299;42.004;24.868;2023-07-30T05:18:09;98034.53;;;24.53;46.97
6532;BME280;3299;42.004;24.868;2023-07-30T05:20:35;98025.53;;;24.48;47.20
6532;BME280;3299;42.004;24.868;2023-07-30T05:23:00;98032.13;;;24.65;47.10
6532;BME280;3299;42.004;24.868;2023-07-30T05:25:27;98037.44;;;24.71;46.50
6532;BME280;3299;42.004;24.868;2023-07-30T05:27:53;98024.59;;;24.68;46.14
6532;BME280;3299;42.004;24.868;2023-07-30T05:30:18;98030.72;;;24.88;46.14
6532;BME280;3299;42.004;24.868;2023-07-30T05:32:43;98018.91;;;24.84;45.58
6532;BME280;3299;42.004;24.868;2023-07-30T05:35:09;98014.41;;;24.91;45.66
6532;BME280;3299;42.004;24.868;2023-07-30T05:37:34;98016.66;;;25.01;45.13
6532;BME280;3299;42.004;24.868;2023-07-30T05:40:00;98015.25;;;24.98;45.37
6532;BME280;3299;42.004;24.868;2023-07-30T05:42:25;98015.63;;;24.95;45.37
6532;BME280;3299;42.004;24.868;2023-07-30T05:44:50;98015.22;;;25.05;45.50
6532;BME280;3299;42.004;24.868;2023-07-30T05:47:16;98026.81;;;25.17;45.22
6532;BME280;3299;42.004;24.868;2023-07-30T05:49:41;98051.66;;;25.48;44.61
6532;BME280;3299;42.004;24.868;2023-07-30T05:52:07;98030.66;;;25.47;44.39
6532;BME280;3299;42.004;24.868;2023-07-30T05:54:32;98021.66;;;25.54;44.64
6532;BME280;3299;42.004;24.868;2023-07-30T05:56:57;98018.75;;;25.69;44.35
6532;BME280;3299;42.004;24.868;2023-07-30T05:59:23;98030.16;;;25.82;43.77
6532;BME280;3299;42.004;24.868;2023-07-30T06:01:48;98028.53;;;25.75;43.68
6532;BME280;3299;42.004;24.868;2023-07-30T06:04:13;98037.69;;;25.92;44.42
6532;BME280;3299;42.004;24.868;2023-07-30T06:06:39;98049.22;;;26.10;44.49
6532;BME280;3299;42.004;24.868;2023-07-30T06:09:04;98045.47;;;26.24;44.04
6532;BME280;3299;42.004;24.868;2023-07-30T06:11:30;98026.91;;;26.24;44.43
6532;BME280;3299;42.004;24.868;2023-07-30T06:13:55;98032.78;;;26.33;44.25
6532;BME280;3299;42.004;24.868;2023-07-30T06:16:20;98036.13;;;26.53;44.41
6532;BME280;3299;42.004;24.868;2023-07-30T06:18:46;98048.09;;;26.68;44.14
6532;BME280;3299;42.004;24.868;2023-07-30T06:21:12;98036.78;;;26.79;44.07
6532;BME280;3299;42.004;24.868;2023-07-30T06:23:38;98015.97;;;26.76;43.60
6532;BME280;3299;42.004;24.868;2023-07-30T06:26:03;98028.75;;;26.86;43.71
6532;BME280;3299;42.004;24.868;2023-07-30T06:28:28;98033.16;;;26.98;43.24
6532;BME280;3299;42.004;24.868;2023-07-30T06:30:54;98015.59;;;26.97;43.01
6532;BME280;3299;42.004;24.868;2023-07-30T06:33:19;98001.88;;;27.00;43.15
6532;BME280;3299;42.004;24.868;2023-07-30T06:35:45;98005.88;;;27.09;42.83
6532;BME280;3299;42.004;24.868;2023-07-30T06:38:10;98019.00;;;27.29;42.54
6532;BME280;3299;42.004;24.868;2023-07-30T06:40:35;98016.72;;;27.32;42.47
6532;BME280;3299;42.004;24.868;2023-07-30T06:43:01;98039.41;;;27.53;42.75
6532;BME280;3299;42.004;24.868;2023-07-30T06:45:26;98035.34;;;27.68;42.57
6532;BME280;3299;42.004;24.868;2023-07-30T06:47:51;98030.03;;;27.68;42.18
6532;BME280;3299;42.004;24.868;2023-07-30T06:50:17;98025.91;;;27.72;42.17
6532;BME280;3299;42.004;24.868;2023-07-30T06:52:42;98015.63;;;27.76;41.96
6532;BME280;3299;42.004;24.868;2023-07-30T06:55:08;98027.75;;;27.90;41.89
6532;BME280;3299;42.004;24.868;2023-07-30T06:57:34;98033.00;;;27.96;42.14
6532;BME280;3299;42.004;24.868;2023-07-30T06:59:59;98033.72;;;28.03;42.46
6532;BME280;3299;42.004;24.868;2023-07-30T07:02:25;98010.81;;;28.02;42.56
6532;BME280;3299;42.004;24.868;2023-07-30T07:04:51;97997.38;;;27.97;42.32
6532;BME280;3299;42.004;24.868;2023-07-30T07:07:16;98011.53;;;28.09;41.85
6532;BME280;3299;42.004;24.868;2023-07-30T07:09:42;98017.44;;;28.11;41.97
6532;BME280;3299;42.004;24.868;2023-07-30T07:12:07;98009.59;;;28.16;42.15
6532;BME280;3299;42.004;24.868;2023-07-30T07:14:33;97986.34;;;28.12;41.70
6532;BME280;3299;42.004;24.868;2023-07-30T07:16:58;98006.53;;;28.31;41.88
6532;BME280;3299;42.004;24.868;2023-07-30T07:19:23;97984.56;;;28.06;41.66
6532;BME280;3299;42.004;24.868;2023-07-30T07:21:49;98016.94;;;28.32;41.92
6532;BME280;3299;42.004;24.868;2023-07-30T07:24:16;97997.50;;;28.32;41.60
6532;BME280;3299;42.004;24.868;2023-07-30T07:26:41;98010.56;;;28.51;41.13
6532;BME280;3299;42.004;24.868;2023-07-30T07:29:07;97978.94;;;28.43;40.98
6532;BME280;3299;42.004;24.868;2023-07-30T07:31:32;98001.56;;;28.64;40.76
6532;BME280;3299;42.004;24.868;2023-07-30T07:33:58;97983.63;;;28.59;40.14
6532;BME280;3299;42.004;24.868;2023-07-30T07:36:23;97982.09;;;28.63;39.83
6532;BME280;3299;42.004;24.868;2023-07-30T07:38:49;97998.47;;;28.78;39.40
6532;BME280;3299;42.004;24.868;2023-07-30T07:41:15;97980.16;;;28.70;39.62
6532;BME280;3299;42.004;24.868;2023-07-30T07:43:42;97996.63;;;28.90;39.77
6532;BME280;3299;42.004;24.868;2023-07-30T07:46:07;97991.50;;;28.89;39.93
6532;BME280;3299;42.004;24.868;2023-07-30T07:48:39;97988.16;;;28.82;40.00
6532;BME280;3299;42.004;24.868;2023-07-30T07:51:05;97987.81;;;28.78;40.08
6532;BME280;3299;42.004;24.868;2023-07-30T07:53:30;98017.84;;;28.97;40.08
6532;BME280;3299;42.004;24.868;2023-07-30T07:55:56;98003.72;;;28.96;39.87
6532;BME280;3299;42.004;24.868;2023-07-30T07:58:21;97984.69;;;28.93;40.08
6532;BME280;3299;42.004;24.868;2023-07-30T08:00:47;97998.84;;;29.05;39.79
6532;BME280;3299;42.004;24.868;2023-07-30T08:03:12;98014.25;;;29.14;39.61
6532;BME280;3299;42.004;24.868;2023-07-30T08:05:38;98008.94;;;29.14;38.75
6532;BME280;3299;42.004;24.868;2023-07-30T08:08:03;97990.16;;;29.09;39.04
6532;BME280;3299;42.004;24.868;2023-07-30T08:10:29;97997.09;;;29.10;39.91
6532;BME280;3299;42.004;24.868;2023-07-30T08:12:54;97968.03;;;28.97;40.07
6532;BME280;3299;42.004;24.868;2023-07-30T08:15:19;97969.31;;;29.06;39.46
6532;BME280;3299;42.004;24.868;2023-07-30T08:17:45;97964.44;;;29.03;39.07
6532;BME280;3299;42.004;24.868;2023-07-30T08:20:11;97997.00;;;29.28;38.96
6532;BME280;3299;42.004;24.868;2023-07-30T08:22:36;97993.28;;;29.29;39.03
6532;BME280;3299;42.004;24.868;2023-07-30T08:25:02;97994.09;;;29.41;38.79
6532;BME280;3299;42.004;24.868;2023-07-30T08:27:28;97979.13;;;29.40;38.58
6532;BME280;3299;42.004;24.868;2023-07-30T08:29:53;97959.66;;;29.40;38.02
6532;BME280;3299;42.004;24.868;2023-07-30T08:32:19;97959.44;;;29.41;38.45
6532;BME280;3299;42.004;24.868;2023-07-30T08:34:44;97990.03;;;29.62;37.45
6532;BME280;3299;42.004;24.868;2023-07-30T08:37:09;97976.47;;;29.63;37.69
6532;BME280;3299;42.004;24.868;2023-07-30T08:39:35;97950.59;;;29.64;38.27
6532;BME280;3299;42.004;24.868;2023-07-30T08:42:00;97966.63;;;29.80;39.04
6532;BME280;3299;42.004;24.868;2023-07-30T08:44:26;97982.75;;;29.85;39.20
6532;BME280;3299;42.004;24.868;2023-07-30T08:46:51;97938.19;;;29.58;39.38
6532;BME280;3299;42.004;24.868;2023-07-30T08:49:16;97965.84;;;29.80;39.49
6532;BME280;3299;42.004;24.868;2023-07-30T08:51:42;97931.19;;;29.68;38.98
6532;BME280;3299;42.004;24.868;2023-07-30T08:54:10;97946.13;;;29.81;39.03
6532;BME280;3299;42.004;24.868;2023-07-30T08:56:37;97952.19;;;29.65;38.63
6532;BME280;3299;42.004;24.868;2023-07-30T08:59:03;97934.69;;;29.57;39.07
6532;BME280;3299;42.004;24.868;2023-07-30T09:01:30;97923.94;;;29.52;39.53
6532;BME280;3299;42.004;24.868;2023-07-30T09:04:00;97940.78;;;29.81;39.21
6532;BME280;3299;42.004;24.868;2023-07-30T09:06:26;97939.28;;;29.85;38.69
6532;BME280;3299;42.004;24.868;2023-07-30T09:08:51;97914.81;;;29.76;37.84
6532;BME280;3299;42.004;24.868;2023-07-30T09:11:17;97936.84;;;29.83;38.19
6532;BME280;3299;42.004;24.868;2023-07-30T09:13:43;97933.88;;;29.96;38.07
6532;BME280;3299;42.004;24.868;2023-07-30T09:16:13;97903.72;;;29.68;37.77
6532;BME280;3299;42.004;24.868;2023-07-30T09:18:43;97937.59;;;29.95;38.13
6532;BME280;3299;42.004;24.868;2023-07-30T09:21:10;97903.47;;;29.97;38.62
6532;BME280;3299;42.004;24.868;2023-07-30T09:23:40;97927.34;;;30.32;38.42
6532;BME280;3299;42.004;24.868;2023-07-30T09:26:06;97917.16;;;30.45;37.17
6532;BME280;3299;42.004;24.868;2023-07-30T09:28:32;97885.03;;;30.40;37.41
6532;BME280;3299;42.004;24.868;2023-07-30T09:31:03;97889.47;;;30.51;37.11
6532;BME280;3299;42.004;24.868;2023-07-30T09:33:31;97878.72;;;30.46;37.03
6532;BME280;3299;42.004;24.868;2023-07-30T09:35:56;97897.72;;;30.50;36.65
6532;BME280;3299;42.004;24.868;2023-07-30T09:38:22;97889.28;;;30.58;36.66
6532;BME280;3299;42.004;24.868;2023-07-30T09:40:47;97876.53;;;30.60;36.96
6532;BME280;3299;42.004;24.868;2023-07-30T09:43:14;97874.09;;;30.58;36.59
6532;BME280;3299;42.004;24.868;2023-07-30T09:45:40;97899.16;;;30.90;36.57
6532;BME280;3299;42.004;24.868;2023-07-30T09:48:05;97892.91;;;31.01;36.23
6532;BME280;3299;42.004;24.868;2023-07-30T09:50:33;97855.59;;;30.90;35.72
6532;BME280;3299;42.004;24.868;2023-07-30T09:52:58;97888.41;;;31.23;35.24
6532;BME280;3299;42.004;24.868;2023-07-30T09:55:26;97854.72;;;31.22;34.89
6532;BME280;3299;42.004;24.868;2023-07-30T09:57:51;97866.16;;;31.39;34.99
6532;BME280;3299;42.004;24.868;2023-07-30T10:00:17;97848.81;;;31.42;35.12
6532;BME280;3299;42.004;24.868;2023-07-30T10:02:45;97878.97;;;31.59;35.10
6532;BME280;3299;42.004;24.868;2023-07-30T10:05:15;97864.06;;;31.68;34.59
6532;BME280;3299;42.004;24.868;2023-07-30T10:07:46;97832.78;;;31.68;34.61
6532;BME280;3299;42.004;24.868;2023-07-30T10:10:13;97858.72;;;31.94;34.48
6532;BME280;3299;42.004;24.868;2023-07-30T10:12:39;97845.41;;;31.99;34.01
6532;BME280;3299;42.004;24.868;2023-07-30T10:15:07;97830.19;;;32.05;34.42
6532;BME280;3299;42.004;24.868;2023-07-30T10:17:33;97858.00;;;32.30;34.00
6532;BME280;3299;42.004;24.868;2023-07-30T10:20:19;97849.47;;;32.33;34.00
6532;BME280;3299;42.004;24.868;2023-07-30T10:22:45;97827.16;;;32.28;34.22
6532;BME280;3299;42.004;24.868;2023-07-30T10:25:12;97852.31;;;32.58;33.62
6532;BME280;3299;42.004;24.868;2023-07-30T10:27:39;97847.03;;;32.68;33.64
6532;BME280;3299;42.004;24.868;2023-07-30T10:32:57;97827.31;;;32.84;33.00
6532;BME280;3299;42.004;24.868;2023-07-30T10:35:43;97825.19;;;32.86;33.23
6532;BME280;3299;42.004;24.868;2023-07-30T10:38:19;97843.00;;;33.12;32.58
6532;BME280;3299;42.004;24.868;2023-07-30T10:41:06;97838.25;;;33.29;31.83
6532;BME280;3299;42.004;24.868;2023-07-30T10:43:50;97826.47;;;33.30;32.46
6532;BME280;3299;42.004;24.868;2023-07-30T10:46:18;97830.81;;;33.51;31.84
6532;BME280;3299;42.004;24.868;2023-07-30T10:48:45;97831.38;;;33.63;31.51
6532;BME280;3299;42.004;24.868;2023-07-30T10:51:19;97834.16;;;33.98;31.63
6532;BME280;3299;42.004;24.868;2023-07-30T10:53:49;97800.59;;;34.11;30.02
6532;BME280;3299;42.004;24.868;2023-07-30T10:56:17;97802.75;;;34.34;29.92
6532;BME280;3299;42.004;24.868;2023-07-30T10:58:43;97831.44;;;34.68;29.95
6532;BME280;3299;42.004;24.868;2023-07-30T11:01:13;97830.09;;;34.81;29.51
6532;BME280;3299;42.004;24.868;2023-07-30T11:03:38;97803.44;;;34.89;29.64
6532;BME280;3299;42.004;24.868;2023-07-30T11:06:04;97820.56;;;35.13;28.25
6532;BME280;3299;42.004;24.868;2023-07-30T11:08:40;97816.19;;;35.32;27.43
6532;BME280;3299;42.004;24.868;2023-07-30T11:11:09;97790.94;;;35.28;26.55
6532;BME280;3299;42.004;24.868;2023-07-30T11:13:40;97795.13;;;35.44;27.01
6532;BME280;3299;42.004;24.868;2023-07-30T11:16:07;97811.69;;;35.66;26.88
6532;BME280;3299;42.004;24.868;2023-07-30T11:18:33;97793.59;;;35.77;27.33
6532;BME280;3299;42.004;24.868;2023-07-30T11:21:05;97810.09;;;36.04;26.52
6532;BME280;3299;42.004;24.868;2023-07-30T11:23:30;97790.09;;;36.10;26.40
6532;BME280;3299;42.004;24.868;2023-07-30T11:25:56;97774.72;;;36.15;26.53
6532;BME280;3299;42.004;24.868;2023-07-30T11:28:38;97796.25;;;36.49;26.63
6532;BME280;3299;42.004;24.868;2023-07-30T11:31:17;97779.44;;;36.57;26.08
6532;BME280;3299;42.004;24.868;2023-07-30T11:33:46;97758.50;;;36.49;25.21
6532;BME280;3299;42.004;24.868;2023-07-30T11:36:17;97791.13;;;36.47;25.14
6532;BME280;3299;42.004;24.868;2023-07-30T11:38:44;97754.34;;;36.04;25.39
6532;BME280;3299;42.004;24.868;2023-07-30T11:41:11;97756.59;;;36.26;25.58
6532;BME280;3299;42.004;24.868;2023-07-30T11:43:38;97779.03;;;36.45;25.15
6532;BME280;3299;42.004;24.868;2023-07-30T11:46:15;97768.38;;;36.58;24.87
6532;BME280;3299;42.004;24.868;2023-07-30T11:48:43;97773.63;;;36.73;24.57
6532;BME280;3299;42.004;24.868;2023-07-30T11:51:19;97747.03;;;36.62;24.23
6532;BME280;3299;42.004;24.868;2023-07-30T11:53:46;97768.88;;;36.60;24.61
6532;BME280;3299;42.004;24.868;2023-07-30T11:56:23;97752.69;;;36.65;24.64
6532;BME280;3299;42.004;24.868;2023-07-30T11:58:51;97774.38;;;36.79;24.59
6532;BME280;3299;42.004;24.868;2023-07-30T12:01:17;97747.03;;;36.62;24.11
6532;BME280;3299;42.004;24.868;2023-07-30T12:03:43;97753.84;;;36.83;24.77
6532;BME280;3299;42.004;24.868;2023-07-30T12:06:10;97761.38;;;37.04;23.37
6532;BME280;3299;42.004;24.868;2023-07-30T12:08:36;97746.47;;;36.88;23.29
6532;BME280;3299;42.004;24.868;2023-07-30T12:11:03;97731.38;;;36.87;23.70
6532;BME280;3299;42.004;24.868;2023-07-30T12:13:30;97750.53;;;37.28;22.99
6532;BME280;3299;42.004;24.868;2023-07-30T12:15:56;97730.06;;;37.45;23.25
6532;BME280;3299;42.004;24.868;2023-07-30T12:18:23;97715.53;;;37.60;22.64
6532;BME280;3299;42.004;24.868;2023-07-30T12:20:52;97702.09;;;37.73;22.28
6532;BME280;3299;42.004;24.868;2023-07-30T12:23:18;97703.84;;;37.96;21.56
6532;BME280;3299;42.004;24.868;2023-07-30T12:25:45;97707.53;;;38.19;20.94
6532;BME280;3299;42.004;24.868;2023-07-30T12:28:10;97712.94;;;38.32;20.83
6532;BME280;3299;42.004;24.868;2023-07-30T12:30:36;97722.78;;;38.42;21.18
6532;BME280;3299;42.004;24.868;2023-07-30T12:33:05;97727.81;;;38.48;22.09
6532;BME280;3299;42.004;24.868;2023-07-30T12:35:31;97705.28;;;38.53;21.20
6532;BME280;3299;42.004;24.868;2023-07-30T12:37:57;97705.22;;;38.39;21.84
6532;BME280;3299;42.004;24.868;2023-07-30T12:40:23;97707.16;;;38.52;22.14
6532;BME280;3299;42.004;24.868;2023-07-30T12:42:49;97713.97;;;38.63;22.07
6532;BME280;3299;42.004;24.868;2023-07-30T12:45:14;97703.78;;;38.74;21.95
6532;BME280;3299;42.004;24.868;2023-07-30T12:47:40;97695.16;;;38.45;21.77
6532;BME280;3299;42.004;24.868;2023-07-30T12:50:06;97693.97;;;38.51;21.95
6532;BME280;3299;42.004;24.868;2023-07-30T12:52:33;97708.97;;;38.43;21.21
6532;BME280;3299;42.004;24.868;2023-07-30T12:54:59;97704.22;;;38.08;21.54
6532;BME280;3299;42.004;24.868;2023-07-30T12:57:24;97703.91;;;38.10;22.21
6532;BME280;3299;42.004;24.868;2023-07-30T12:59:50;97704.13;;;38.13;21.23
6532;BME280;3299;42.004;24.868;2023-07-30T13:02:15;97697.84;;;38.31;21.45
6532;BME280;3299;42.004;24.868;2023-07-30T13:04:41;97669.28;;;38.25;22.04
6532;BME280;3299;42.004;24.868;2023-07-30T13:07:06;97666.88;;;38.10;21.18
6532;BME280;3299;42.004;24.868;2023-07-30T13:09:31;97676.38;;;38.21;21.33